Nearby METAR Reports

KBED - Bedford,MA, USA
Distance from station: S 11mi, 18km
Updated: Tue, 20-Apr-2021 2:51pm EDT
Partly Cloudy
Partly Cloudy
 Wind from WSW
Wind: WSW 12 mph , 19 km/h, Gust: 23 mph , 37 km/h
Temperature: 75°F , 24°C
Dew Point: 37°F , 3°C
Humidity: 25%
Barometer: 29.78 inHg , 1008.5 hPa
Clouds: Partly Cloudy
Visibility: 10 miles , 16 km
Cloud details: Few Clouds 9000 ft
Partly Cloudy 11000 ft
2021/04/20 18:51 KBED 201851Z 24010G20KT 10SM FEW090 SCT110 24/03 A2978 RMK AO2 SLP097 T02390033
KLWM - Lawrence,MA, USA
Distance from station: ENE 12mi, 19km
Updated: Tue, 20-Apr-2021 2:54pm EDT
Partly Cloudy
Partly Cloudy
 Wind from WSW
Wind: WSW 17 mph , 28 km/h, Gust: 32 mph , 52 km/h
Temperature: 73°F , 23°C
Dew Point: 37°F , 3°C
Humidity: 27%
Barometer: 29.79 inHg , 1008.8 hPa
Clouds: Partly Cloudy
Visibility: 10 miles , 16 km
Cloud details: Partly Cloudy 10000 ft
2021/04/20 18:54 KLWM 201854Z 24015G28KT 10SM SCT100 23/03 A2979 RMK AO2 PK WND 21028/1848 SLP087 T02280028
 
KASH - Nashua,NH, USA
Distance from station: NW 14mi, 23km
Updated: Tue, 20-Apr-2021 2:56pm EDT
Overcast
Overcast
 Wind from WNW
Wind: WNW 16 mph , 26 km/h, Gust: 29 mph , 46 km/h
Temperature: 70°F , 21°C
Dew Point: 36°F , 2°C
Humidity: 29%
Barometer: 29.80 inHg , 1009.1 hPa
Clouds: Overcast
Visibility: 10 miles , 16 km
Cloud details: Mostly Cloudy 9000 ft
Overcast 11000 ft
2021/04/20 18:56 KASH 201856Z 29014G25KT 10SM BKN090 OVC110 21/02 A2980 RMK AO2 SLP094 T02110022
KFIT - Fitchburg, MA, USA
Distance from station: WSW 22mi, 35km
Updated: Tue, 20-Apr-2021 2:52pm EDT
Mostly Cloudy
Mostly Cloudy
 Wind from W
Wind: W 9 mph , 15 km/h, Gust: 23 mph , 37 km/h
Temperature: 70°F , 21°C
Dew Point: 36°F , 2°C
Humidity: 29%
Barometer: 29.81 inHg , 1009.5 hPa
Clouds: Mostly Cloudy
Visibility: 10 miles , 16 km
Cloud details: Mostly Cloudy 9500 ft
2021/04/20 18:52 KFIT 201852Z AUTO 27008G20KT 10SM BKN095 21/02 A2981 RMK AO2 PK WND 27026/1753 SLP095 T02110022

Metar display script from Saratoga-Weather.org